createdAt,value
2022-09-14T00:01:45.137Z,23.90
2022-09-14T00:04:16.858Z,23.60
2022-09-14T00:06:46.845Z,23.40
2022-09-14T00:09:20.746Z,23.40
2022-09-14T00:11:49.944Z,23.40
2022-09-14T00:14:19.555Z,23.50
2022-09-14T00:16:48.862Z,23.20
2022-09-14T00:19:23.906Z,23.20
2022-09-14T00:21:55.970Z,23.00
2022-09-14T00:24:26.468Z,22.90
2022-09-14T00:26:56.678Z,22.80
2022-09-14T00:29:25.662Z,22.70
2022-09-14T00:31:54.270Z,22.50
2022-09-14T00:34:24.364Z,22.50
2022-09-14T00:36:53.385Z,22.50
2022-09-14T00:39:24.983Z,22.30
2022-09-14T00:41:54.102Z,22.30
2022-09-14T00:44:22.411Z,22.40
2022-09-14T00:46:53.810Z,22.40
2022-09-14T00:49:25.254Z,22.50
2022-09-14T00:52:13.681Z,22.60
2022-09-14T00:54:50.369Z,22.70
2022-09-14T00:57:20.199Z,22.50
2022-09-14T00:59:51.535Z,22.40
2022-09-14T01:02:22.336Z,22.50
2022-09-14T01:04:51.794Z,22.40
2022-09-14T01:07:44.597Z,22.30
2022-09-14T01:10:41.773Z,22.00
2022-09-14T01:13:33.605Z,21.90
2022-09-14T01:16:20.518Z,22.00
2022-09-14T01:18:56.961Z,22.10
2022-09-14T01:21:38.983Z,22.10
2022-09-14T01:27:42.429Z,22.10
2022-09-14T01:30:13.571Z,22.00
2022-09-14T01:32:46.294Z,21.90
2022-09-14T01:35:22.532Z,21.90
2022-09-14T01:38:05.137Z,21.90
2022-09-14T01:40:54.207Z,21.90
2022-09-14T01:43:26.326Z,21.90
2022-09-14T01:46:14.467Z,21.70
2022-09-14T01:48:59.280Z,21.60
2022-09-14T01:51:37.516Z,21.40
2022-09-14T01:54:14.654Z,21.40
2022-09-14T01:57:00.960Z,21.30
2022-09-14T01:59:37.415Z,21.20
2022-09-14T02:02:38.851Z,21.10
2022-09-14T02:05:09.947Z,21.10
2022-09-14T02:07:39.668Z,20.90
2022-09-14T02:10:13.564Z,20.90
2022-09-14T02:12:42.765Z,20.80
2022-09-14T02:15:14.085Z,20.70
2022-09-14T02:17:43.026Z,20.60
2022-09-14T02:20:22.698Z,20.60
2022-09-14T02:22:53.209Z,20.50
2022-09-14T02:25:22.160Z,20.40
2022-09-14T02:27:50.662Z,20.40
2022-09-14T02:30:21.532Z,20.40
2022-09-14T02:33:11.585Z,20.30
2022-09-14T02:35:48.040Z,20.20
2022-09-14T02:38:42.431Z,20.30
2022-09-14T02:41:28.159Z,20.30
2022-09-14T02:44:16.210Z,20.30
2022-09-14T02:46:56.533Z,20.20
2022-09-14T02:49:31.423Z,20.20
2022-09-14T02:52:16.207Z,20.20
2022-09-14T02:54:58.522Z,20.20
2022-09-14T02:57:27.195Z,20.10
2022-09-14T02:59:56.543Z,20.00
2022-09-14T03:02:25.211Z,19.80
2022-09-14T03:04:54.269Z,19.70
2022-09-14T03:07:22.733Z,19.60
2022-09-14T03:09:51.323Z,19.60
2022-09-14T03:12:19.831Z,19.60
2022-09-14T03:14:48.207Z,19.70
2022-09-14T03:17:17.052Z,19.60
2022-09-14T03:19:45.520Z,19.60
2022-09-14T03:22:13.926Z,19.70
2022-09-14T03:24:42.300Z,19.60
2022-09-14T03:27:10.757Z,19.60
2022-09-14T03:29:39.155Z,19.60
2022-09-14T03:32:07.549Z,19.50
2022-09-14T03:34:35.980Z,19.60
2022-09-14T03:37:04.420Z,19.70
2022-09-14T03:39:32.835Z,19.70
2022-09-14T03:42:01.271Z,19.60
2022-09-14T03:44:29.639Z,19.70
2022-09-14T03:46:58.070Z,19.70
2022-09-14T03:49:26.505Z,19.60
2022-09-14T03:51:59.524Z,19.70
2022-09-14T03:54:29.179Z,19.70
2022-09-14T03:56:57.623Z,19.60
2022-09-14T03:59:26.195Z,19.60
2022-09-14T04:01:55.877Z,19.50
2022-09-14T04:04:24.411Z,19.60
2022-09-14T04:06:52.794Z,19.50
2022-09-14T04:09:21.301Z,19.40
2022-09-14T04:11:49.743Z,19.40
2022-09-14T04:14:18.799Z,19.40
2022-09-14T04:16:47.457Z,19.40
2022-09-14T04:19:15.821Z,19.30
2022-09-14T04:21:44.279Z,19.20
2022-09-14T04:24:17.441Z,19.20
2022-09-14T04:26:48.141Z,19.00
2022-09-14T04:29:20.831Z,19.00
2022-09-14T04:31:54.124Z,19.10
2022-09-14T04:34:23.200Z,19.00
2022-09-14T04:36:51.723Z,19.10
2022-09-14T04:39:21.502Z,19.00
2022-09-14T04:41:50.328Z,19.10
2022-09-14T04:44:19.293Z,19.00
2022-09-14T04:46:49.454Z,19.00
2022-09-14T04:49:19.818Z,19.00
2022-09-14T04:51:54.334Z,19.00
2022-09-14T04:54:23.081Z,19.00
2022-09-14T04:56:51.470Z,19.00
2022-09-14T04:59:20.017Z,19.00
2022-09-14T05:01:49.151Z,19.00
2022-09-14T05:04:18.167Z,19.00
2022-09-14T05:06:46.722Z,19.00
2022-09-14T05:09:17.784Z,19.00
2022-09-14T05:11:46.807Z,19.00
2022-09-14T05:14:15.909Z,18.90
2022-09-14T05:16:45.234Z,18.90
2022-09-14T05:19:16.653Z,19.00
2022-09-14T05:21:45.364Z,18.90
2022-09-14T05:24:19.596Z,18.90
2022-09-14T05:26:48.349Z,19.00
2022-09-14T05:29:19.061Z,18.90
2022-09-14T05:31:48.149Z,18.90
2022-09-14T05:34:16.879Z,18.80
2022-09-14T05:36:45.353Z,18.80
2022-09-14T05:39:13.885Z,18.80
2022-09-14T05:41:42.311Z,18.80
2022-09-14T05:44:10.742Z,18.80
2022-09-14T05:46:39.282Z,18.80
2022-09-14T05:49:07.722Z,18.80
2022-09-14T05:51:37.908Z,18.80
2022-09-14T05:54:11.001Z,18.80
2022-09-14T05:56:39.672Z,18.70
2022-09-14T05:59:08.073Z,18.80
2022-09-14T06:01:36.703Z,18.80
2022-09-14T06:04:05.142Z,18.90
2022-09-14T06:06:34.225Z,18.80
2022-09-14T06:09:03.102Z,18.80
2022-09-14T06:11:34.228Z,18.80
2022-09-14T06:14:03.055Z,18.80
2022-09-14T06:16:31.801Z,18.70
2022-09-14T06:19:00.869Z,18.60
2022-09-14T06:21:35.691Z,18.70
2022-09-14T06:24:04.509Z,18.70
2022-09-14T06:26:33.242Z,18.60
2022-09-14T06:29:01.665Z,18.60
2022-09-14T06:31:30.144Z,18.70
2022-09-14T06:33:58.935Z,18.60
2022-09-14T06:36:28.972Z,18.70
2022-09-14T06:38:57.833Z,18.60
2022-09-14T06:41:31.282Z,18.50
2022-09-14T06:44:02.489Z,18.60
2022-09-14T06:46:33.330Z,18.60
2022-09-14T06:49:08.049Z,18.60
2022-09-14T06:51:44.912Z,18.40
2022-09-14T06:54:16.130Z,18.50
2022-09-14T06:56:46.098Z,18.40
2022-09-14T06:59:16.471Z,18.50
2022-09-14T07:01:46.538Z,18.50
2022-09-14T07:04:15.307Z,18.60
2022-09-14T07:06:49.299Z,18.60
2022-09-14T07:09:19.491Z,18.50
2022-09-14T07:11:48.404Z,18.60
2022-09-14T07:14:17.448Z,18.60
2022-09-14T07:16:45.854Z,18.60
2022-09-14T07:19:15.877Z,18.50
2022-09-14T07:21:44.742Z,18.50
2022-09-14T07:24:15.700Z,18.50
2022-09-14T07:26:44.616Z,18.40
2022-09-14T07:29:17.512Z,18.30
2022-09-14T07:31:49.438Z,18.40
2022-09-14T07:34:18.678Z,18.50
2022-09-14T07:36:47.493Z,18.50
2022-09-14T07:39:17.876Z,18.50
2022-09-14T07:41:46.807Z,18.50
2022-09-14T07:44:17.262Z,18.40
2022-09-14T07:46:47.284Z,18.30
2022-09-14T07:49:16.956Z,18.40
2022-09-14T07:51:45.746Z,18.50
2022-09-14T07:54:16.087Z,18.50
2022-09-14T07:56:46.205Z,18.50
2022-09-14T08:02:06.923Z,18.60
2022-09-14T08:04:41.774Z,18.60
2022-09-14T08:07:10.681Z,18.60
2022-09-14T08:09:40.373Z,18.50
2022-09-14T08:12:08.874Z,18.60
2022-09-14T08:14:37.748Z,18.60
2022-09-14T08:17:06.283Z,18.60
2022-09-14T08:19:34.794Z,18.50
2022-09-14T08:22:03.225Z,18.50
2022-09-14T08:24:32.320Z,18.50
2022-09-14T08:27:00.758Z,18.40
2022-09-14T08:29:29.298Z,18.50
2022-09-14T08:31:59.295Z,18.30
2022-09-14T08:34:27.873Z,18.20
2022-09-14T08:36:56.366Z,18.30
2022-09-14T08:39:24.865Z,18.40
2022-09-14T08:41:58.430Z,18.20
2022-09-14T08:44:51.500Z,18.20
2022-09-14T08:47:35.250Z,18.20
2022-09-14T08:50:19.427Z,18.20
2022-09-14T08:52:50.428Z,18.20
2022-09-14T08:55:18.808Z,18.20
2022-09-14T08:58:03.934Z,18.10
2022-09-14T09:00:53.238Z,18.10
2022-09-14T09:03:46.141Z,18.10
2022-09-14T09:06:25.619Z,18.10
2022-09-14T09:09:00.663Z,18.10
2022-09-14T09:11:38.476Z,18.10
2022-09-14T09:14:18.539Z,18.10
2022-09-14T09:16:52.241Z,18.00
2022-09-14T09:19:38.615Z,18.00
2022-09-14T09:22:18.028Z,18.00
2022-09-14T09:24:52.239Z,18.10
2022-09-14T09:27:20.659Z,18.20
2022-09-14T09:29:49.070Z,18.30
2022-09-14T09:32:27.006Z,18.30
2022-09-14T09:34:55.703Z,18.30
2022-09-14T09:37:25.562Z,18.40
2022-09-14T09:39:54.185Z,18.30
2022-09-14T09:42:29.064Z,18.10
2022-09-14T09:45:02.991Z,18.10
2022-09-14T09:47:42.775Z,18.00
2022-09-14T09:50:26.444Z,18.00
2022-09-14T09:53:06.579Z,18.00
2022-09-14T09:55:40.903Z,17.90
2022-09-14T09:58:37.936Z,17.90
2022-09-14T10:01:12.465Z,18.10
2022-09-14T10:03:41.987Z,18.20
2022-09-14T10:06:15.570Z,18.30
2022-09-14T10:08:47.012Z,18.20
2022-09-14T10:11:37.462Z,18.10
2022-09-14T10:14:06.974Z,18.10
2022-09-14T10:16:39.849Z,18.10
2022-09-14T10:19:23.515Z,18.20
2022-09-14T10:22:17.383Z,18.10
2022-09-14T10:25:00.510Z,18.10
2022-09-14T10:27:57.690Z,18.10
2022-09-14T10:30:44.545Z,18.10
2022-09-14T10:33:17.041Z,18.20
2022-09-14T10:36:09.953Z,18.20
2022-09-14T10:38:47.032Z,18.10
2022-09-14T10:41:31.835Z,18.20
2022-09-14T10:44:48.062Z,18.20
2022-09-14T10:47:32.422Z,17.90
2022-09-14T10:50:14.695Z,17.90
2022-09-14T10:52:45.894Z,17.90
2022-09-14T10:55:32.801Z,18.00
2022-09-14T10:58:31.969Z,18.00
2022-09-14T11:01:18.842Z,17.90
2022-09-14T11:04:11.522Z,17.80
2022-09-14T11:07:07.086Z,17.70
2022-09-14T11:09:48.829Z,17.70
2022-09-14T11:12:47.173Z,17.90
2022-09-14T11:15:32.047Z,17.80
2022-09-14T11:18:26.543Z,17.90
2022-09-14T11:21:13.440Z,17.80
2022-09-14T11:23:44.602Z,17.80
2022-09-14T11:26:32.388Z,17.80
2022-09-14T11:29:05.462Z,17.80
2022-09-14T11:31:38.781Z,17.80
2022-09-14T11:34:41.906Z,17.60
2022-09-14T11:37:21.726Z,17.70
2022-09-14T11:40:25.981Z,17.60
2022-09-14T11:43:12.935Z,17.70
2022-09-14T11:46:07.256Z,17.70
2022-09-14T11:48:50.596Z,17.70
2022-09-14T11:51:33.415Z,17.60
2022-09-14T11:54:01.857Z,17.60
2022-09-14T11:56:34.817Z,17.50
2022-09-14T11:59:07.701Z,17.50
2022-09-14T12:01:39.006Z,17.60
2022-09-14T12:04:14.232Z,17.50
2022-09-14T12:06:43.871Z,17.50
2022-09-14T12:09:18.165Z,17.50
2022-09-14T12:11:47.471Z,17.60
2022-09-14T12:14:31.086Z,17.60
2022-09-14T12:17:17.652Z,17.60
2022-09-14T12:19:58.387Z,17.50
2022-09-14T12:22:26.727Z,17.50
2022-09-14T12:25:18.045Z,17.40
2022-09-14T12:27:49.882Z,17.40
2022-09-14T12:30:40.510Z,17.30
2022-09-14T12:33:34.311Z,17.40
2022-09-14T12:36:13.467Z,17.40
2022-09-14T12:38:55.083Z,17.30
2022-09-14T12:41:23.405Z,17.30
2022-09-14T12:43:51.863Z,17.40
2022-09-14T12:46:23.393Z,17.40
2022-09-14T12:48:53.821Z,17.30
2022-09-14T12:51:29.064Z,17.30
2022-09-14T12:54:01.185Z,17.40
2022-09-14T12:56:41.784Z,17.50
2022-09-14T12:59:37.577Z,17.40
2022-09-14T13:02:06.065Z,17.50
2022-09-14T13:04:37.134Z,17.50
2022-09-14T13:07:19.698Z,17.50
2022-09-14T13:09:59.466Z,17.60
2022-09-14T13:12:33.874Z,17.50
2022-09-14T13:15:29.510Z,17.40
2022-09-14T13:18:28.962Z,17.40
2022-09-14T13:20:59.983Z,17.40
2022-09-14T13:23:37.912Z,17.40
2022-09-14T13:26:24.986Z,17.40
2022-09-14T13:28:55.641Z,17.50
2022-09-14T13:31:38.607Z,17.50
2022-09-14T13:34:07.826Z,17.30
2022-09-14T13:36:42.189Z,17.40
2022-09-14T13:39:42.789Z,17.40
2022-09-14T13:42:11.625Z,17.40
2022-09-14T13:44:48.807Z,17.40
2022-09-14T13:47:20.287Z,17.40
2022-09-14T13:49:51.235Z,17.50
2022-09-14T13:52:43.094Z,17.50
2022-09-14T13:55:44.747Z,17.50
2022-09-14T13:58:25.714Z,17.50
2022-09-14T14:01:05.308Z,17.60
2022-09-14T14:03:47.861Z,17.60
2022-09-14T14:06:30.185Z,17.60
2022-09-14T14:09:10.380Z,17.70
2022-09-14T14:11:41.507Z,17.60
2022-09-14T14:14:27.611Z,17.70
2022-09-14T14:17:23.018Z,17.60
2022-09-14T14:19:53.334Z,17.70
2022-09-14T14:22:28.721Z,17.80
2022-09-14T14:25:14.017Z,17.90
2022-09-14T14:27:46.363Z,17.90
2022-09-14T14:30:18.016Z,18.00
2022-09-14T14:32:54.283Z,18.00
2022-09-14T14:35:26.380Z,18.00
2022-09-14T14:37:55.632Z,18.00
2022-09-14T14:40:25.524Z,17.90
2022-09-14T14:42:55.810Z,17.90
2022-09-14T14:45:28.419Z,17.90
2022-09-14T14:47:57.369Z,17.80
2022-09-14T14:50:35.051Z,17.70
2022-09-14T14:53:04.557Z,17.80
2022-09-14T14:55:33.709Z,17.80
2022-09-14T14:58:05.510Z,17.80
2022-09-14T15:00:36.088Z,17.90
2022-09-14T15:03:05.097Z,17.80
2022-09-14T15:05:33.918Z,17.80
2022-09-14T15:08:02.593Z,17.70
2022-09-14T15:10:31.489Z,17.80
2022-09-14T15:12:59.930Z,18.00
2022-09-14T15:15:28.429Z,18.00
2022-09-14T15:17:56.875Z,18.00
2022-09-14T15:20:25.297Z,18.20
2022-09-14T15:22:54.418Z,18.30
2022-09-14T15:25:23.122Z,18.40
2022-09-14T15:27:51.597Z,18.30
2022-09-14T15:30:20.051Z,18.30
2022-09-14T15:32:48.430Z,18.40
2022-09-14T15:35:17.003Z,18.50
2022-09-14T15:37:47.308Z,18.40
2022-09-14T15:40:17.205Z,18.60
2022-09-14T15:42:45.689Z,18.60
2022-09-14T15:45:15.185Z,19.00
2022-09-14T15:47:44.396Z,19.10
2022-09-14T15:50:12.885Z,19.20
2022-09-14T15:52:41.910Z,19.50
2022-09-14T15:55:12.007Z,19.60
2022-09-14T15:57:40.861Z,20.20
2022-09-14T16:00:13.187Z,21.00
2022-09-14T16:02:42.291Z,21.70
2022-09-14T16:05:11.085Z,21.30
2022-09-14T16:07:39.477Z,20.80
2022-09-14T16:10:08.543Z,20.40
2022-09-14T16:12:36.958Z,20.50
2022-09-14T16:15:05.555Z,20.80
2022-09-14T16:17:33.940Z,20.60
2022-09-14T16:20:02.389Z,20.60
2022-09-14T16:22:33.469Z,20.60
2022-09-14T16:25:02.176Z,20.60
2022-09-14T16:27:31.163Z,20.60
2022-09-14T16:29:59.538Z,20.60
2022-09-14T16:32:28.367Z,20.40
2022-09-14T16:34:56.708Z,20.60
2022-09-14T16:37:25.053Z,20.70
2022-09-14T16:39:53.568Z,20.60
2022-09-14T16:42:22.155Z,20.70
2022-09-14T16:44:50.491Z,20.90
2022-09-14T16:47:18.900Z,20.60
2022-09-14T16:49:47.267Z,20.70
2022-09-14T16:52:15.618Z,20.70
2022-09-14T16:54:44.490Z,20.20
2022-09-14T16:57:12.906Z,19.80
2022-09-14T16:59:41.279Z,19.90
2022-09-14T17:02:23.962Z,19.70
2022-09-14T17:04:52.341Z,20.10
2022-09-14T17:07:23.166Z,20.20
2022-09-14T17:09:51.556Z,20.30
2022-09-14T17:12:19.913Z,20.30
2022-09-14T17:14:48.639Z,20.40
2022-09-14T17:17:16.973Z,20.90
2022-09-14T17:19:45.331Z,21.20
2022-09-14T17:22:15.296Z,21.30
2022-09-14T17:24:43.638Z,21.70
2022-09-14T17:27:11.992Z,22.00
2022-09-14T17:29:41.657Z,22.20
2022-09-14T17:32:14.653Z,22.40
2022-09-14T17:34:43.597Z,22.60
2022-09-14T17:37:11.989Z,22.40
2022-09-14T17:39:40.387Z,22.70
2022-09-14T17:42:08.829Z,23.20
2022-09-14T17:44:37.602Z,23.40
2022-09-14T17:47:06.211Z,23.10
2022-09-14T17:49:34.689Z,23.20
2022-09-14T17:52:03.848Z,22.90
2022-09-14T17:54:32.398Z,23.10
2022-09-14T17:57:00.809Z,23.40
2022-09-14T17:59:29.266Z,23.50
2022-09-14T18:01:57.674Z,23.90
2022-09-14T18:04:26.363Z,24.10
2022-09-14T18:06:54.725Z,23.70
2022-09-14T18:09:25.182Z,24.00
2022-09-14T18:11:57.223Z,24.30
2022-09-14T18:14:26.451Z,24.10
2022-09-14T18:16:54.838Z,24.30
2022-09-14T18:19:23.594Z,23.90
2022-09-14T18:21:52.998Z,23.60
2022-09-14T18:24:22.410Z,23.60
2022-09-14T18:26:51.362Z,23.80
2022-09-14T18:29:22.229Z,23.60
2022-09-14T18:31:54.336Z,23.90
2022-09-14T18:34:23.915Z,23.70
2022-09-14T18:36:53.035Z,24.10
2022-09-14T18:39:21.518Z,24.10
2022-09-14T18:41:54.604Z,24.30
2022-09-14T18:44:23.697Z,24.20
2022-09-14T18:46:52.400Z,24.50
2022-09-14T18:49:21.018Z,24.70
2022-09-14T18:51:49.457Z,24.50
2022-09-14T18:54:18.040Z,24.60
2022-09-14T18:56:46.776Z,25.10
2022-09-14T18:59:16.263Z,25.50
2022-09-14T19:01:45.272Z,25.00
2022-09-14T19:04:16.277Z,24.90
2022-09-14T19:06:44.836Z,25.20
2022-09-14T19:09:13.280Z,24.10
2022-09-14T19:11:41.706Z,24.60
2022-09-14T19:14:13.013Z,24.70
2022-09-14T19:16:43.154Z,24.90
2022-09-14T19:19:15.227Z,25.40
2022-09-14T19:21:44.056Z,25.90
2022-09-14T19:24:15.605Z,25.40
2022-09-14T19:26:47.530Z,25.20
2022-09-14T19:29:18.363Z,25.10
2022-09-14T19:31:49.186Z,24.60
2022-09-14T19:34:17.672Z,25.00
2022-09-14T19:36:46.327Z,25.10
2022-09-14T19:39:15.020Z,25.00
2022-09-14T19:41:43.851Z,24.90
2022-09-14T19:44:12.770Z,24.10
2022-09-14T19:46:41.530Z,24.10
2022-09-14T19:49:21.891Z,24.20
2022-09-14T19:51:51.280Z,24.70
2022-09-14T19:54:20.145Z,24.70
2022-09-14T19:56:49.045Z,24.40
2022-09-14T19:59:17.741Z,24.60
2022-09-14T20:01:46.451Z,24.80
2022-09-14T20:04:16.490Z,24.60
2022-09-14T20:06:47.322Z,25.10
2022-09-14T20:09:21.522Z,25.20
2022-09-14T20:11:51.914Z,25.50
2022-09-14T20:14:24.265Z,25.70
2022-09-14T20:16:58.959Z,26.20
2022-09-14T20:19:29.293Z,26.10
2022-09-14T20:21:57.867Z,25.80
2022-09-14T20:24:29.954Z,25.40
2022-09-14T20:27:01.226Z,25.60
2022-09-14T20:29:31.860Z,25.90
2022-09-14T20:32:00.920Z,26.10
2022-09-14T20:34:29.820Z,26.10
2022-09-14T20:37:01.112Z,26.40
2022-09-14T20:39:30.371Z,25.80
2022-09-14T20:41:58.763Z,25.90
2022-09-14T20:44:27.185Z,25.20
2022-09-14T20:46:55.542Z,25.00
2022-09-14T20:49:24.727Z,25.10
2022-09-14T20:51:57.458Z,25.20
2022-09-14T20:54:25.851Z,25.10
2022-09-14T20:56:54.181Z,24.90
2022-09-14T20:59:26.319Z,25.10
2022-09-14T21:01:54.731Z,24.80
2022-09-14T21:04:25.402Z,24.90
2022-09-14T21:06:56.054Z,24.80
2022-09-14T21:09:26.207Z,24.50
2022-09-14T21:11:54.876Z,24.60
2022-09-14T21:14:24.116Z,24.90
2022-09-14T21:16:57.398Z,24.90
2022-09-14T21:19:28.253Z,25.00
2022-09-14T21:21:57.316Z,24.90
2022-09-14T21:24:26.353Z,24.80
2022-09-14T21:26:56.777Z,24.90
2022-09-14T21:29:25.370Z,25.10
2022-09-14T21:31:54.414Z,25.10
2022-09-14T21:34:23.576Z,25.10
2022-09-14T21:36:53.330Z,24.40
2022-09-14T21:39:24.060Z,23.60
2022-09-14T21:41:58.492Z,24.00
2022-09-14T21:44:35.908Z,24.10
2022-09-14T21:47:05.625Z,24.20
2022-09-14T21:49:34.087Z,24.00
2022-09-14T21:52:02.839Z,24.50
2022-09-14T21:54:31.201Z,24.70
2022-09-14T21:56:59.542Z,24.10
2022-09-14T21:59:28.039Z,24.50
2022-09-14T22:01:56.533Z,24.60
2022-09-14T22:04:26.937Z,24.60
2022-09-14T22:06:55.969Z,25.00
2022-09-14T22:09:27.583Z,25.20
2022-09-14T22:11:57.298Z,25.10
2022-09-14T22:14:28.999Z,24.80
2022-09-14T22:16:57.599Z,24.40
2022-09-14T22:19:27.947Z,24.60
2022-09-14T22:21:56.557Z,25.10
2022-09-14T22:24:33.471Z,25.00
2022-09-14T22:27:04.442Z,25.30
2022-09-14T22:29:33.324Z,25.30
2022-09-14T22:32:01.694Z,25.00
2022-09-14T22:34:31.781Z,25.00
2022-09-14T22:37:00.313Z,25.10
2022-09-14T22:39:28.715Z,24.80
2022-09-14T22:41:57.094Z,24.90
2022-09-14T22:44:28.474Z,24.80
2022-09-14T22:46:56.853Z,24.40
2022-09-14T22:49:25.260Z,24.50
2022-09-14T22:51:53.697Z,24.50
2022-09-14T22:54:22.118Z,24.40
2022-09-14T22:56:50.468Z,24.30
2022-09-14T22:59:18.946Z,24.20
2022-09-14T23:01:47.421Z,24.40
2022-09-14T23:04:16.108Z,24.60
2022-09-14T23:06:49.190Z,24.80
2022-09-14T23:09:23.067Z,24.80
2022-09-14T23:11:51.745Z,24.50
2022-09-14T23:14:20.130Z,24.30
2022-09-14T23:16:48.570Z,24.60
2022-09-14T23:19:19.086Z,24.30
2022-09-14T23:21:48.302Z,24.30
2022-09-14T23:24:17.483Z,24.30
2022-09-14T23:26:46.026Z,24.10
2022-09-14T23:29:17.737Z,23.90
2022-09-14T23:31:46.709Z,24.10
2022-09-14T23:34:15.641Z,24.20
2022-09-14T23:36:44.071Z,24.30
2022-09-14T23:39:12.484Z,24.00
2022-09-14T23:41:41.615Z,24.00
2022-09-14T23:44:11.989Z,23.70
2022-09-14T23:46:40.344Z,23.80
2022-09-14T23:49:08.773Z,23.80
2022-09-14T23:51:38.101Z,23.80
2022-09-14T23:54:07.373Z,23.90
2022-09-14T23:56:37.639Z,23.90
2022-09-14T23:59:07.294Z,23.80
